sensor_id;sensor_type;location;lat;lon;timestamp;P1;durP1;ratioP1;P2;durP2;ratioP2
12212;SDS011;6169;44.158;22.788;2022-12-18T00:04:26;38.83;;;20.77;;
12212;SDS011;6169;44.158;22.788;2022-12-18T00:09:30;45.03;;;25.60;;
12212;SDS011;6169;44.158;22.788;2022-12-18T00:14:32;39.73;;;21.30;;
12212;SDS011;6169;44.158;22.788;2022-12-18T00:19:34;43.60;;;21.50;;
12212;SDS011;6169;44.158;22.788;2022-12-18T00:24:38;41.37;;;22.93;;
12212;SDS011;6169;44.158;22.788;2022-12-18T00:29:40;38.87;;;23.47;;
12212;SDS011;6169;44.158;22.788;2022-12-18T00:34:43;47.13;;;25.63;;
12212;SDS011;6169;44.158;22.788;2022-12-18T00:39:46;48.13;;;23.50;;
12212;SDS011;6169;44.158;22.788;2022-12-18T00:44:50;44.73;;;26.03;;
12212;SDS011;6169;44.158;22.788;2022-12-18T00:49:52;42.57;;;22.33;;
12212;SDS011;6169;44.158;22.788;2022-12-18T00:54:56;45.63;;;24.77;;
12212;SDS011;6169;44.158;22.788;2022-12-18T00:59:58;44.53;;;25.60;;
12212;SDS011;6169;44.158;22.788;2022-12-18T01:05:00;42.13;;;24.43;;
12212;SDS011;6169;44.158;22.788;2022-12-18T01:10:05;43.93;;;24.77;;
12212;SDS011;6169;44.158;22.788;2022-12-18T01:15:09;39.20;;;23.70;;
12212;SDS011;6169;44.158;22.788;2022-12-18T01:20:12;43.70;;;22.57;;
12212;SDS011;6169;44.158;22.788;2022-12-18T01:25:16;38.93;;;23.97;;
12212;SDS011;6169;44.158;22.788;2022-12-18T01:30:19;39.40;;;23.67;;
12212;SDS011;6169;44.158;22.788;2022-12-18T01:35:21;33.83;;;20.77;;
12212;SDS011;6169;44.158;22.788;2022-12-18T01:40:25;36.40;;;19.33;;
12212;SDS011;6169;44.158;22.788;2022-12-18T01:45:27;32.17;;;18.20;;
12212;SDS011;6169;44.158;22.788;2022-12-18T01:50:31;30.47;;;15.90;;
12212;SDS011;6169;44.158;22.788;2022-12-18T01:55:37;39.67;;;20.03;;
12212;SDS011;6169;44.158;22.788;2022-12-18T02:00:44;34.30;;;18.97;;
12212;SDS011;6169;44.158;22.788;2022-12-18T02:05:46;34.73;;;18.67;;
12212;SDS011;6169;44.158;22.788;2022-12-18T02:11:00;36.07;;;19.67;;
12212;SDS011;6169;44.158;22.788;2022-12-18T02:16:11;37.73;;;19.37;;
12212;SDS011;6169;44.158;22.788;2022-12-18T02:21:24;34.20;;;19.13;;
12212;SDS011;6169;44.158;22.788;2022-12-18T02:26:35;35.57;;;19.20;;
12212;SDS011;6169;44.158;22.788;2022-12-18T02:31:44;31.30;;;16.77;;
12212;SDS011;6169;44.158;22.788;2022-12-18T02:36:51;28.48;;;16.55;;
12212;SDS011;6169;44.158;22.788;2022-12-18T02:41:58;38.17;;;20.43;;
12212;SDS011;6169;44.158;22.788;2022-12-18T02:47:08;32.20;;;16.57;;
12212;SDS011;6169;44.158;22.788;2022-12-18T02:52:14;34.20;;;19.37;;
12212;SDS011;6169;44.158;22.788;2022-12-18T02:57:26;28.30;;;15.73;;
12212;SDS011;6169;44.158;22.788;2022-12-18T03:02:36;33.13;;;17.87;;
12212;SDS011;6169;44.158;22.788;2022-12-18T03:07:46;27.80;;;14.90;;
12212;SDS011;6169;44.158;22.788;2022-12-18T03:12:56;31.63;;;17.27;;
12212;SDS011;6169;44.158;22.788;2022-12-18T03:18:04;28.77;;;17.17;;
12212;SDS011;6169;44.158;22.788;2022-12-18T03:23:13;31.73;;;18.80;;
12212;SDS011;6169;44.158;22.788;2022-12-18T03:28:21;34.50;;;18.30;;
12212;SDS011;6169;44.158;22.788;2022-12-18T03:33:25;31.73;;;17.33;;
12212;SDS011;6169;44.158;22.788;2022-12-18T03:38:30;34.03;;;16.30;;
12212;SDS011;6169;44.158;22.788;2022-12-18T03:43:37;38.23;;;18.60;;
12212;SDS011;6169;44.158;22.788;2022-12-18T03:48:50;40.50;;;19.97;;
12212;SDS011;6169;44.158;22.788;2022-12-18T03:53:58;31.10;;;18.30;;
12212;SDS011;6169;44.158;22.788;2022-12-18T03:59:03;35.50;;;18.87;;
12212;SDS011;6169;44.158;22.788;2022-12-18T04:04:07;36.00;;;19.10;;
12212;SDS011;6169;44.158;22.788;2022-12-18T04:09:12;33.10;;;18.17;;
12212;SDS011;6169;44.158;22.788;2022-12-18T04:14:16;38.30;;;21.43;;
12212;SDS011;6169;44.158;22.788;2022-12-18T04:19:18;40.90;;;19.93;;
12212;SDS011;6169;44.158;22.788;2022-12-18T04:24:20;38.03;;;21.10;;
12212;SDS011;6169;44.158;22.788;2022-12-18T04:29:24;33.93;;;18.47;;
12212;SDS011;6169;44.158;22.788;2022-12-18T04:34:26;41.13;;;22.03;;
12212;SDS011;6169;44.158;22.788;2022-12-18T04:39:28;35.50;;;19.17;;
12212;SDS011;6169;44.158;22.788;2022-12-18T04:44:32;33.87;;;18.00;;
12212;SDS011;6169;44.158;22.788;2022-12-18T04:49:34;38.43;;;18.93;;
12212;SDS011;6169;44.158;22.788;2022-12-18T04:54:37;39.03;;;19.93;;
12212;SDS011;6169;44.158;22.788;2022-12-18T04:59:40;35.40;;;21.27;;
12212;SDS011;6169;44.158;22.788;2022-12-18T05:04:42;40.63;;;18.40;;
12212;SDS011;6169;44.158;22.788;2022-12-18T05:09:44;36.17;;;20.17;;
12212;SDS011;6169;44.158;22.788;2022-12-18T05:14:48;30.30;;;17.40;;
12212;SDS011;6169;44.158;22.788;2022-12-18T05:19:50;32.97;;;19.00;;
12212;SDS011;6169;44.158;22.788;2022-12-18T05:24:52;37.70;;;24.63;;
12212;SDS011;6169;44.158;22.788;2022-12-18T05:29:56;32.43;;;17.73;;
12212;SDS011;6169;44.158;22.788;2022-12-18T05:34:58;36.80;;;18.93;;
12212;SDS011;6169;44.158;22.788;2022-12-18T05:40:00;36.33;;;18.97;;
12212;SDS011;6169;44.158;22.788;2022-12-18T05:45:05;33.83;;;17.90;;
12212;SDS011;6169;44.158;22.788;2022-12-18T05:50:08;32.27;;;16.77;;
12212;SDS011;6169;44.158;22.788;2022-12-18T05:55:10;31.20;;;15.77;;
12212;SDS011;6169;44.158;22.788;2022-12-18T06:00:15;32.20;;;16.77;;
12212;SDS011;6169;44.158;22.788;2022-12-18T06:05:18;33.80;;;18.10;;
12212;SDS011;6169;44.158;22.788;2022-12-18T06:10:20;33.17;;;17.30;;
12212;SDS011;6169;44.158;22.788;2022-12-18T06:15:23;35.93;;;18.67;;
12212;SDS011;6169;44.158;22.788;2022-12-18T06:20:26;62.17;;;31.83;;
12212;SDS011;6169;44.158;22.788;2022-12-18T06:25:28;33.30;;;17.93;;
12212;SDS011;6169;44.158;22.788;2022-12-18T06:30:32;39.97;;;20.47;;
12212;SDS011;6169;44.158;22.788;2022-12-18T06:35:34;38.37;;;20.27;;
12212;SDS011;6169;44.158;22.788;2022-12-18T06:40:36;31.37;;;16.00;;
12212;SDS011;6169;44.158;22.788;2022-12-18T06:45:40;29.37;;;16.60;;
12212;SDS011;6169;44.158;22.788;2022-12-18T06:50:43;32.00;;;15.33;;
12212;SDS011;6169;44.158;22.788;2022-12-18T06:55:45;32.23;;;16.60;;
12212;SDS011;6169;44.158;22.788;2022-12-18T07:00:48;22.03;;;12.80;;
12212;SDS011;6169;44.158;22.788;2022-12-18T07:05:52;25.30;;;12.73;;
12212;SDS011;6169;44.158;22.788;2022-12-18T07:10:54;25.70;;;13.03;;
12212;SDS011;6169;44.158;22.788;2022-12-18T07:16:04;20.90;;;12.10;;
12212;SDS011;6169;44.158;22.788;2022-12-18T07:21:08;22.63;;;13.10;;
12212;SDS011;6169;44.158;22.788;2022-12-18T07:26:12;29.40;;;12.67;;
12212;SDS011;6169;44.158;22.788;2022-12-18T07:31:17;23.33;;;12.20;;
12212;SDS011;6169;44.158;22.788;2022-12-18T07:36:21;20.97;;;12.50;;
12212;SDS011;6169;44.158;22.788;2022-12-18T07:41:23;25.70;;;14.20;;
12212;SDS011;6169;44.158;22.788;2022-12-18T07:46:27;23.37;;;11.70;;
12212;SDS011;6169;44.158;22.788;2022-12-18T07:51:29;22.03;;;12.93;;
12212;SDS011;6169;44.158;22.788;2022-12-18T07:56:31;25.57;;;12.83;;
12212;SDS011;6169;44.158;22.788;2022-12-18T08:01:35;25.23;;;15.53;;
12212;SDS011;6169;44.158;22.788;2022-12-18T08:06:37;24.73;;;13.40;;
12212;SDS011;6169;44.158;22.788;2022-12-18T08:11:39;22.03;;;12.40;;
12212;SDS011;6169;44.158;22.788;2022-12-18T08:16:43;26.23;;;13.90;;
12212;SDS011;6169;44.158;22.788;2022-12-18T08:21:45;22.20;;;12.60;;
12212;SDS011;6169;44.158;22.788;2022-12-18T08:26:47;25.43;;;13.47;;
12212;SDS011;6169;44.158;22.788;2022-12-18T08:31:52;25.97;;;13.13;;
12212;SDS011;6169;44.158;22.788;2022-12-18T08:36:54;22.23;;;12.57;;
12212;SDS011;6169;44.158;22.788;2022-12-18T08:41:56;24.83;;;12.63;;
12212;SDS011;6169;44.158;22.788;2022-12-18T08:47:17;21.03;;;11.27;;
12212;SDS011;6169;44.158;22.788;2022-12-18T08:52:19;23.93;;;12.70;;
12212;SDS011;6169;44.158;22.788;2022-12-18T08:57:21;22.70;;;13.53;;
12212;SDS011;6169;44.158;22.788;2022-12-18T09:02:25;18.43;;;10.77;;
12212;SDS011;6169;44.158;22.788;2022-12-18T09:07:27;22.07;;;11.63;;
12212;SDS011;6169;44.158;22.788;2022-12-18T09:12:29;19.63;;;11.57;;
12212;SDS011;6169;44.158;22.788;2022-12-18T09:17:33;32.00;;;16.23;;
12212;SDS011;6169;44.158;22.788;2022-12-18T09:22:35;22.90;;;16.33;;
12212;SDS011;6169;44.158;22.788;2022-12-18T09:27:37;21.50;;;10.63;;
12212;SDS011;6169;44.158;22.788;2022-12-18T09:32:41;24.50;;;14.40;;
12212;SDS011;6169;44.158;22.788;2022-12-18T09:37:43;19.90;;;12.47;;
12212;SDS011;6169;44.158;22.788;2022-12-18T09:42:52;23.57;;;14.33;;
12212;SDS011;6169;44.158;22.788;2022-12-18T09:48:00;26.07;;;14.20;;
12212;SDS011;6169;44.158;22.788;2022-12-18T09:53:04;25.23;;;12.83;;
12212;SDS011;6169;44.158;22.788;2022-12-18T09:58:16;24.23;;;12.00;;
12212;SDS011;6169;44.158;22.788;2022-12-18T10:03:24;41.07;;;22.90;;
12212;SDS011;6169;44.158;22.788;2022-12-18T10:08:30;27.93;;;16.37;;
12212;SDS011;6169;44.158;22.788;2022-12-18T10:13:40;21.27;;;10.30;;
12212;SDS011;6169;44.158;22.788;2022-12-18T10:18:55;23.60;;;13.03;;
12212;SDS011;6169;44.158;22.788;2022-12-18T10:24:11;18.07;;;12.00;;
12212;SDS011;6169;44.158;22.788;2022-12-18T10:29:21;20.33;;;12.47;;
12212;SDS011;6169;44.158;22.788;2022-12-18T10:34:25;26.20;;;13.87;;
12212;SDS011;6169;44.158;22.788;2022-12-18T10:39:27;22.03;;;13.17;;
12212;SDS011;6169;44.158;22.788;2022-12-18T10:44:29;22.93;;;14.27;;
12212;SDS011;6169;44.158;22.788;2022-12-18T10:49:33;21.17;;;12.33;;
12212;SDS011;6169;44.158;22.788;2022-12-18T10:54:37;21.83;;;14.33;;
12212;SDS011;6169;44.158;22.788;2022-12-18T10:59:49;21.93;;;11.67;;
12212;SDS011;6169;44.158;22.788;2022-12-18T11:04:55;21.10;;;10.93;;
12212;SDS011;6169;44.158;22.788;2022-12-18T11:10:03;18.63;;;11.53;;
12212;SDS011;6169;44.158;22.788;2022-12-18T11:15:13;18.93;;;11.33;;
12212;SDS011;6169;44.158;22.788;2022-12-18T11:20:23;20.87;;;11.07;;
12212;SDS011;6169;44.158;22.788;2022-12-18T11:25:32;25.90;;;13.50;;
12212;SDS011;6169;44.158;22.788;2022-12-18T11:30:35;25.53;;;14.40;;
12212;SDS011;6169;44.158;22.788;2022-12-18T11:35:42;22.93;;;13.53;;
12212;SDS011;6169;44.158;22.788;2022-12-18T11:40:51;24.60;;;14.57;;
12212;SDS011;6169;44.158;22.788;2022-12-18T11:45:58;23.43;;;13.93;;
12212;SDS011;6169;44.158;22.788;2022-12-18T11:51:05;31.93;;;19.17;;
12212;SDS011;6169;44.158;22.788;2022-12-18T11:56:21;24.87;;;14.60;;
12212;SDS011;6169;44.158;22.788;2022-12-18T12:01:35;28.83;;;13.63;;
12212;SDS011;6169;44.158;22.788;2022-12-18T12:06:49;23.97;;;13.87;;
12212;SDS011;6169;44.158;22.788;2022-12-18T12:12:02;29.57;;;15.90;;
12212;SDS011;6169;44.158;22.788;2022-12-18T12:17:17;27.53;;;15.23;;
12212;SDS011;6169;44.158;22.788;2022-12-18T12:27:35;26.87;;;13.63;;
12212;SDS011;6169;44.158;22.788;2022-12-18T12:32:59;33.87;;;15.27;;
12212;SDS011;6169;44.158;22.788;2022-12-18T12:38:10;27.63;;;14.30;;
12212;SDS011;6169;44.158;22.788;2022-12-18T12:43:21;27.70;;;15.47;;
12212;SDS011;6169;44.158;22.788;2022-12-18T12:48:38;28.90;;;15.53;;
12212;SDS011;6169;44.158;22.788;2022-12-18T12:53:46;28.43;;;16.50;;
12212;SDS011;6169;44.158;22.788;2022-12-18T12:58:52;30.50;;;16.23;;
12212;SDS011;6169;44.158;22.788;2022-12-18T13:04:08;32.53;;;16.60;;
12212;SDS011;6169;44.158;22.788;2022-12-18T13:09:22;27.25;;;13.68;;
12212;SDS011;6169;44.158;22.788;2022-12-18T13:14:26;27.57;;;14.53;;
12212;SDS011;6169;44.158;22.788;2022-12-18T13:19:30;31.27;;;17.83;;
12212;SDS011;6169;44.158;22.788;2022-12-18T13:24:34;30.63;;;17.30;;
12212;SDS011;6169;44.158;22.788;2022-12-18T13:29:45;29.20;;;17.40;;
12212;SDS011;6169;44.158;22.788;2022-12-18T13:34:47;28.93;;;15.47;;
12212;SDS011;6169;44.158;22.788;2022-12-18T13:39:51;34.67;;;18.50;;
12212;SDS011;6169;44.158;22.788;2022-12-18T13:44:53;35.07;;;17.07;;
12212;SDS011;6169;44.158;22.788;2022-12-18T13:49:55;32.97;;;17.77;;
12212;SDS011;6169;44.158;22.788;2022-12-18T13:55:00;32.17;;;17.10;;
12212;SDS011;6169;44.158;22.788;2022-12-18T14:00:19;42.13;;;19.60;;
12212;SDS011;6169;44.158;22.788;2022-12-18T14:05:27;33.90;;;16.97;;
12212;SDS011;6169;44.158;22.788;2022-12-18T14:10:32;34.33;;;18.97;;
12212;SDS011;6169;44.158;22.788;2022-12-18T14:15:35;34.20;;;18.83;;
12212;SDS011;6169;44.158;22.788;2022-12-18T14:20:41;42.30;;;19.33;;
12212;SDS011;6169;44.158;22.788;2022-12-18T14:25:47;36.73;;;19.27;;
12212;SDS011;6169;44.158;22.788;2022-12-18T14:30:49;40.83;;;21.80;;
12212;SDS011;6169;44.158;22.788;2022-12-18T14:35:53;35.30;;;20.90;;
12212;SDS011;6169;44.158;22.788;2022-12-18T14:41:00;45.53;;;22.93;;
12212;SDS011;6169;44.158;22.788;2022-12-18T14:46:04;36.40;;;20.57;;
12212;SDS011;6169;44.158;22.788;2022-12-18T14:51:27;42.43;;;22.23;;
12212;SDS011;6169;44.158;22.788;2022-12-18T14:56:33;34.97;;;20.03;;
12212;SDS011;6169;44.158;22.788;2022-12-18T15:01:37;43.87;;;22.37;;
12212;SDS011;6169;44.158;22.788;2022-12-18T15:06:45;66.00;;;37.10;;
12212;SDS011;6169;44.158;22.788;2022-12-18T15:11:54;42.90;;;21.80;;
12212;SDS011;6169;44.158;22.788;2022-12-18T15:16:58;42.10;;;19.93;;
12212;SDS011;6169;44.158;22.788;2022-12-18T15:22:01;34.23;;;20.20;;
12212;SDS011;6169;44.158;22.788;2022-12-18T15:27:05;36.17;;;20.60;;
12212;SDS011;6169;44.158;22.788;2022-12-18T15:32:25;40.93;;;20.33;;
12212;SDS011;6169;44.158;22.788;2022-12-18T15:37:28;34.47;;;17.70;;
12212;SDS011;6169;44.158;22.788;2022-12-18T15:42:31;41.73;;;20.20;;
12212;SDS011;6169;44.158;22.788;2022-12-18T15:47:51;39.70;;;21.07;;
12212;SDS011;6169;44.158;22.788;2022-12-18T15:52:53;34.30;;;18.50;;
12212;SDS011;6169;44.158;22.788;2022-12-18T15:57:59;42.30;;;21.23;;
12212;SDS011;6169;44.158;22.788;2022-12-18T16:03:02;45.13;;;23.60;;
12212;SDS011;6169;44.158;22.788;2022-12-18T16:08:05;38.57;;;20.93;;
12212;SDS011;6169;44.158;22.788;2022-12-18T16:13:10;46.23;;;22.00;;
12212;SDS011;6169;44.158;22.788;2022-12-18T16:18:13;42.63;;;20.90;;
12212;SDS011;6169;44.158;22.788;2022-12-18T16:23:15;43.20;;;21.57;;
12212;SDS011;6169;44.158;22.788;2022-12-18T16:28:19;46.70;;;23.60;;
12212;SDS011;6169;44.158;22.788;2022-12-18T16:33:21;55.47;;;29.47;;
12212;SDS011;6169;44.158;22.788;2022-12-18T16:38:23;41.00;;;21.67;;
12212;SDS011;6169;44.158;22.788;2022-12-18T16:43:27;38.80;;;21.53;;
12212;SDS011;6169;44.158;22.788;2022-12-18T16:48:29;44.10;;;24.17;;
12212;SDS011;6169;44.158;22.788;2022-12-18T16:53:31;41.40;;;20.53;;
12212;SDS011;6169;44.158;22.788;2022-12-18T16:58:35;40.90;;;20.47;;
12212;SDS011;6169;44.158;22.788;2022-12-18T17:03:38;48.63;;;22.07;;
12212;SDS011;6169;44.158;22.788;2022-12-18T17:08:40;39.60;;;23.40;;
12212;SDS011;6169;44.158;22.788;2022-12-18T17:13:44;49.03;;;26.90;;
12212;SDS011;6169;44.158;22.788;2022-12-18T17:18:46;36.73;;;19.60;;
12212;SDS011;6169;44.158;22.788;2022-12-18T17:23:48;48.00;;;23.40;;
12212;SDS011;6169;44.158;22.788;2022-12-18T17:28:52;40.67;;;21.23;;
12212;SDS011;6169;44.158;22.788;2022-12-18T17:33:57;42.80;;;22.30;;
12212;SDS011;6169;44.158;22.788;2022-12-18T17:39:00;42.80;;;21.93;;
12212;SDS011;6169;44.158;22.788;2022-12-18T17:44:04;37.93;;;19.13;;
12212;SDS011;6169;44.158;22.788;2022-12-18T17:49:07;35.43;;;20.33;;
12212;SDS011;6169;44.158;22.788;2022-12-18T17:54:09;36.53;;;20.80;;
12212;SDS011;6169;44.158;22.788;2022-12-18T17:59:13;52.53;;;26.50;;
12212;SDS011;6169;44.158;22.788;2022-12-18T18:04:15;41.90;;;21.37;;
12212;SDS011;6169;44.158;22.788;2022-12-18T18:09:17;41.60;;;22.70;;
12212;SDS011;6169;44.158;22.788;2022-12-18T18:14:21;38.03;;;20.03;;
12212;SDS011;6169;44.158;22.788;2022-12-18T18:19:23;38.43;;;19.70;;
12212;SDS011;6169;44.158;22.788;2022-12-18T18:24:26;44.57;;;22.50;;
12212;SDS011;6169;44.158;22.788;2022-12-18T18:29:30;41.90;;;22.77;;
12212;SDS011;6169;44.158;22.788;2022-12-18T18:34:32;96.43;;;55.13;;
12212;SDS011;6169;44.158;22.788;2022-12-18T18:39:34;50.90;;;23.70;;
12212;SDS011;6169;44.158;22.788;2022-12-18T18:44:38;36.27;;;20.13;;
12212;SDS011;6169;44.158;22.788;2022-12-18T18:49:40;38.33;;;21.27;;
12212;SDS011;6169;44.158;22.788;2022-12-18T18:54:43;31.13;;;16.43;;
12212;SDS011;6169;44.158;22.788;2022-12-18T18:59:49;39.60;;;24.07;;
12212;SDS011;6169;44.158;22.788;2022-12-18T19:04:52;39.03;;;20.63;;
12212;SDS011;6169;44.158;22.788;2022-12-18T19:09:54;44.27;;;21.93;;
12212;SDS011;6169;44.158;22.788;2022-12-18T19:14:58;55.80;;;29.43;;
12212;SDS011;6169;44.158;22.788;2022-12-18T19:20:01;46.53;;;24.60;;
12212;SDS011;6169;44.158;22.788;2022-12-18T19:25:03;44.87;;;22.70;;
12212;SDS011;6169;44.158;22.788;2022-12-18T19:30:09;59.83;;;33.27;;
12212;SDS011;6169;44.158;22.788;2022-12-18T19:35:12;42.63;;;23.60;;
12212;SDS011;6169;44.158;22.788;2022-12-18T19:40:14;43.70;;;26.87;;
12212;SDS011;6169;44.158;22.788;2022-12-18T19:45:17;32.57;;;18.43;;
12212;SDS011;6169;44.158;22.788;2022-12-18T19:50:20;33.53;;;18.03;;
12212;SDS011;6169;44.158;22.788;2022-12-18T19:55:22;31.00;;;16.80;;
12212;SDS011;6169;44.158;22.788;2022-12-18T20:00:25;32.73;;;16.80;;
12212;SDS011;6169;44.158;22.788;2022-12-18T20:05:28;44.90;;;18.80;;
12212;SDS011;6169;44.158;22.788;2022-12-18T20:10:31;34.37;;;18.63;;
12212;SDS011;6169;44.158;22.788;2022-12-18T20:15:34;29.63;;;17.20;;
12212;SDS011;6169;44.158;22.788;2022-12-18T20:20:37;36.33;;;17.70;;
12212;SDS011;6169;44.158;22.788;2022-12-18T20:25:40;37.50;;;17.80;;
12212;SDS011;6169;44.158;22.788;2022-12-18T20:30:43;32.00;;;15.63;;
12212;SDS011;6169;44.158;22.788;2022-12-18T20:35:46;32.53;;;16.30;;
12212;SDS011;6169;44.158;22.788;2022-12-18T20:40:48;33.30;;;16.17;;
12212;SDS011;6169;44.158;22.788;2022-12-18T20:45:58;33.50;;;17.57;;
12212;SDS011;6169;44.158;22.788;2022-12-18T20:51:02;30.47;;;17.43;;
12212;SDS011;6169;44.158;22.788;2022-12-18T20:56:06;31.00;;;15.73;;
12212;SDS011;6169;44.158;22.788;2022-12-18T21:01:12;37.10;;;17.83;;
12212;SDS011;6169;44.158;22.788;2022-12-18T21:06:16;32.47;;;17.70;;
12212;SDS011;6169;44.158;22.788;2022-12-18T21:11:27;31.40;;;18.30;;
12212;SDS011;6169;44.158;22.788;2022-12-18T21:16:49;33.97;;;17.67;;
12212;SDS011;6169;44.158;22.788;2022-12-18T21:21:56;30.07;;;15.77;;
12212;SDS011;6169;44.158;22.788;2022-12-18T21:26:59;27.03;;;15.33;;
12212;SDS011;6169;44.158;22.788;2022-12-18T21:32:04;31.17;;;15.93;;
12212;SDS011;6169;44.158;22.788;2022-12-18T21:37:08;30.37;;;15.43;;
12212;SDS011;6169;44.158;22.788;2022-12-18T21:42:10;32.97;;;18.07;;
12212;SDS011;6169;44.158;22.788;2022-12-18T21:47:31;27.20;;;14.53;;
12212;SDS011;6169;44.158;22.788;2022-12-18T21:52:33;34.67;;;17.03;;
12212;SDS011;6169;44.158;22.788;2022-12-18T21:57:36;29.30;;;15.57;;
12212;SDS011;6169;44.158;22.788;2022-12-18T22:02:40;27.63;;;15.73;;
12212;SDS011;6169;44.158;22.788;2022-12-18T22:07:42;31.10;;;15.93;;
12212;SDS011;6169;44.158;22.788;2022-12-18T22:12:44;34.93;;;19.47;;
12212;SDS011;6169;44.158;22.788;2022-12-18T22:17:48;65.97;;;36.70;;
12212;SDS011;6169;44.158;22.788;2022-12-18T22:22:51;51.87;;;29.80;;
12212;SDS011;6169;44.158;22.788;2022-12-18T22:27:53;66.03;;;36.27;;
12212;SDS011;6169;44.158;22.788;2022-12-18T22:33:14;51.03;;;27.30;;
12212;SDS011;6169;44.158;22.788;2022-12-18T22:38:16;37.33;;;20.33;;
12212;SDS011;6169;44.158;22.788;2022-12-18T22:43:19;30.23;;;17.57;;
12212;SDS011;6169;44.158;22.788;2022-12-18T22:48:22;29.60;;;17.33;;
12212;SDS011;6169;44.158;22.788;2022-12-18T22:53:25;34.43;;;17.60;;
12212;SDS011;6169;44.158;22.788;2022-12-18T22:58:27;47.77;;;21.93;;
12212;SDS011;6169;44.158;22.788;2022-12-18T23:03:32;34.23;;;17.33;;
12212;SDS011;6169;44.158;22.788;2022-12-18T23:08:34;32.33;;;16.90;;
12212;SDS011;6169;44.158;22.788;2022-12-18T23:13:37;34.10;;;17.17;;
12212;SDS011;6169;44.158;22.788;2022-12-18T23:18:41;28.27;;;14.70;;
12212;SDS011;6169;44.158;22.788;2022-12-18T23:23:44;27.40;;;14.43;;
12212;SDS011;6169;44.158;22.788;2022-12-18T23:28:46;26.90;;;15.20;;
12212;SDS011;6169;44.158;22.788;2022-12-18T23:33:51;26.63;;;13.70;;
12212;SDS011;6169;44.158;22.788;2022-12-18T23:38:55;30.27;;;16.37;;
12212;SDS011;6169;44.158;22.788;2022-12-18T23:43:58;30.87;;;16.23;;
12212;SDS011;6169;44.158;22.788;2022-12-18T23:49:03;33.17;;;16.60;;
12212;SDS011;6169;44.158;22.788;2022-12-18T23:54:07;32.20;;;18.60;;
12212;SDS011;6169;44.158;22.788;2022-12-18T23:59:09;31.13;;;16.17;;
